createdAt,value
2022-09-28T00:02:10.790Z,94.03
2022-09-28T00:04:39.584Z,94.40
2022-09-28T00:07:06.988Z,94.23
2022-09-28T00:09:34.437Z,94.45
2022-09-28T00:12:02.266Z,94.87
2022-09-28T00:14:32.197Z,94.58
2022-09-28T00:16:59.619Z,93.91
2022-09-28T00:19:27.114Z,94.21
2022-09-28T00:21:55.875Z,93.42
2022-09-28T00:24:27.517Z,93.23
2022-09-28T00:26:57.101Z,93.22
2022-09-28T00:29:27.145Z,93.12
2022-09-28T00:31:59.729Z,92.44
2022-09-28T00:34:28.006Z,92.14
2022-09-28T00:36:56.750Z,91.67
2022-09-28T00:39:24.509Z,91.10
2022-09-28T00:41:52.368Z,90.79
2022-09-28T00:44:42.490Z,90.80
2022-09-28T00:47:39.900Z,91.54
2022-09-28T00:50:12.346Z,91.26
2022-09-28T00:52:46.484Z,90.84
2022-09-28T00:55:17.051Z,91.68
2022-09-28T00:57:49.148Z,91.84
2022-09-28T01:00:17.249Z,92.00
2022-09-28T01:02:46.486Z,92.36
2022-09-28T01:05:15.232Z,92.46
2022-09-28T01:07:46.525Z,92.03
2022-09-28T01:10:15.017Z,92.29
2022-09-28T01:12:42.463Z,92.21
2022-09-28T01:15:10.928Z,92.37
2022-09-28T01:17:51.752Z,92.56
2022-09-28T01:20:35.299Z,92.98
2022-09-28T01:23:35.360Z,93.47
2022-09-28T01:26:50.482Z,93.42
2022-09-28T01:29:27.532Z,93.43
2022-09-28T01:32:02.574Z,93.78
2022-09-28T01:34:36.850Z,94.08
2022-09-28T01:37:10.681Z,94.24
2022-09-28T01:39:41.616Z,94.77
2022-09-28T01:42:12.935Z,94.59
2022-09-28T01:44:47.584Z,94.60
2022-09-28T01:47:18.983Z,94.90
2022-09-28T01:49:49.827Z,94.93
2022-09-28T01:52:22.738Z,95.04
2022-09-28T01:54:54.555Z,95.18
2022-09-28T01:57:27.619Z,95.07
2022-09-28T02:00:01.481Z,95.39
2022-09-28T02:02:34.256Z,95.21
2022-09-28T02:05:06.044Z,95.09
2022-09-28T02:07:38.191Z,95.28
2022-09-28T02:10:11.852Z,94.99
2022-09-28T02:12:44.888Z,94.65
2022-09-28T02:15:20.543Z,94.78
2022-09-28T02:17:48.575Z,94.51
2022-09-28T02:20:16.853Z,94.04
2022-09-28T02:22:48.490Z,93.95
2022-09-28T02:25:23.831Z,93.11
2022-09-28T02:27:57.885Z,92.61
2022-09-28T02:30:26.964Z,92.62
2022-09-28T02:32:58.015Z,92.83
2022-09-28T02:35:25.485Z,92.83
2022-09-28T02:37:53.411Z,92.54
2022-09-28T02:40:23.115Z,92.66
2022-09-28T02:43:00.707Z,92.78
2022-09-28T02:45:42.344Z,92.98
2022-09-28T02:48:35.961Z,93.30
2022-09-28T02:51:21.302Z,93.24
2022-09-28T02:54:13.451Z,93.25
2022-09-28T02:57:11.162Z,93.46
2022-09-28T02:59:50.353Z,93.68
2022-09-28T03:02:27.046Z,94.01
2022-09-28T03:05:07.070Z,94.26
2022-09-28T03:07:37.781Z,94.45
2022-09-28T03:10:10.925Z,94.15
2022-09-28T03:12:40.112Z,94.49
2022-09-28T03:15:10.364Z,94.86
2022-09-28T03:17:39.630Z,95.25
2022-09-28T03:20:08.155Z,95.21
2022-09-28T03:22:35.543Z,95.41
2022-09-28T03:25:02.944Z,95.63
2022-09-28T03:27:30.340Z,95.86
2022-09-28T03:29:57.741Z,95.95
2022-09-28T03:32:25.279Z,96.19
2022-09-28T03:34:54.283Z,96.13
2022-09-28T03:37:21.689Z,96.36
2022-09-28T03:39:49.150Z,96.51
2022-09-28T03:42:16.559Z,96.64
2022-09-28T03:44:43.957Z,96.68
2022-09-28T03:47:11.559Z,96.34
2022-09-28T03:49:39.088Z,96.42
2022-09-28T03:52:08.173Z,96.17
2022-09-28T03:54:35.589Z,96.29
2022-09-28T03:57:03.008Z,96.44
2022-09-28T03:59:30.635Z,96.37
2022-09-28T04:01:58.316Z,96.57
2022-09-28T04:04:25.728Z,96.91
2022-09-28T04:06:53.139Z,97.09
2022-09-28T04:09:21.900Z,96.82
2022-09-28T04:12:03.437Z,96.72
2022-09-28T04:14:31.832Z,96.76
2022-09-28T04:16:59.305Z,96.84
2022-09-28T04:19:26.693Z,96.48
2022-09-28T04:21:54.116Z,96.60
2022-09-28T04:24:22.887Z,96.36
2022-09-28T04:26:50.330Z,96.50
2022-09-28T04:29:16.951Z,96.52
2022-09-28T04:31:47.138Z,96.40
2022-09-28T04:34:17.233Z,96.53
2022-09-28T04:36:44.879Z,96.91
2022-09-28T04:39:12.420Z,96.70
2022-09-28T04:41:41.238Z,96.60
2022-09-28T04:44:08.927Z,96.39
2022-09-28T04:46:36.800Z,96.59
2022-09-28T04:49:04.556Z,97.08
2022-09-28T04:51:32.667Z,96.75
2022-09-28T04:54:00.136Z,96.72
2022-09-28T04:56:28.300Z,96.97
2022-09-28T04:58:57.009Z,97.24
2022-09-28T05:01:24.542Z,96.85
2022-09-28T05:03:51.985Z,96.53
2022-09-28T05:06:19.378Z,95.91
2022-09-28T05:08:47.621Z,95.89
2022-09-28T05:11:15.746Z,95.59
2022-09-28T05:13:45.189Z,95.94
2022-09-28T05:16:15.749Z,96.05
2022-09-28T05:18:43.534Z,96.42
2022-09-28T05:21:12.674Z,96.00
2022-09-28T05:23:40.513Z,96.36
2022-09-28T05:26:08.429Z,96.65
2022-09-28T05:28:35.815Z,96.70
2022-09-28T05:31:04.984Z,95.85
2022-09-28T05:33:34.337Z,95.88
2022-09-28T05:36:02.177Z,95.39
2022-09-28T05:38:29.754Z,95.44
2022-09-28T05:40:57.297Z,95.16
2022-09-28T05:43:24.911Z,94.95
2022-09-28T05:45:55.632Z,94.90
2022-09-28T05:48:23.700Z,94.84
2022-09-28T05:50:53.466Z,94.99
2022-09-28T05:53:21.172Z,95.39
2022-09-28T05:55:49.102Z,95.33
2022-09-28T05:58:16.961Z,95.25
2022-09-28T06:00:44.663Z,94.97
2022-09-28T06:03:13.765Z,95.06
2022-09-28T06:05:41.616Z,94.83
2022-09-28T06:08:11.528Z,94.69
2022-09-28T06:10:39.330Z,94.63
2022-09-28T06:13:07.160Z,95.16
2022-09-28T06:15:36.154Z,95.38
2022-09-28T06:18:06.415Z,95.79
2022-09-28T06:20:36.181Z,95.48
2022-09-28T06:23:04.125Z,95.66
2022-09-28T06:25:33.033Z,95.49
2022-09-28T06:28:04.321Z,95.56
2022-09-28T06:30:33.955Z,95.52
2022-09-28T06:33:02.755Z,95.54
2022-09-28T06:35:31.390Z,95.13
2022-09-28T06:37:59.880Z,94.82
2022-09-28T06:40:28.223Z,94.77
2022-09-28T06:42:58.675Z,94.62
2022-09-28T06:45:27.067Z,94.51
2022-09-28T06:47:56.517Z,94.78
2022-09-28T06:50:24.066Z,94.71
2022-09-28T06:52:53.284Z,94.76
2022-09-28T06:55:20.933Z,94.61
2022-09-28T06:57:48.700Z,94.60
2022-09-28T07:00:17.760Z,94.42
2022-09-28T07:02:45.164Z,94.31
2022-09-28T07:05:14.471Z,94.25
2022-09-28T07:07:44.652Z,94.49
2022-09-28T07:10:12.746Z,94.30
2022-09-28T07:12:40.496Z,93.78
2022-09-28T07:15:09.228Z,94.08
2022-09-28T07:17:52.971Z,94.38
2022-09-28T07:20:22.213Z,92.81
2022-09-28T07:22:53.924Z,92.42
2022-09-28T07:25:21.425Z,91.39
2022-09-28T07:27:48.817Z,90.32
2022-09-28T07:30:17.037Z,90.91
2022-09-28T07:32:48.276Z,89.32
2022-09-28T07:35:15.999Z,90.33
2022-09-28T07:37:43.402Z,90.62
2022-09-28T07:40:29.077Z,89.90
2022-09-28T07:42:56.689Z,89.23
2022-09-28T07:45:24.702Z,89.02
2022-09-28T07:47:56.196Z,88.19
2022-09-28T07:50:23.707Z,89.91
2022-09-28T07:52:51.114Z,87.93
2022-09-28T07:55:18.511Z,88.74
2022-09-28T07:57:46.928Z,87.54
2022-09-28T08:00:15.568Z,88.27
2022-09-28T08:02:42.991Z,87.85
2022-09-28T08:05:12.363Z,87.36
2022-09-28T08:07:39.752Z,86.90
2022-09-28T08:10:07.867Z,87.11
2022-09-28T08:12:35.798Z,87.13
2022-09-28T08:15:04.335Z,88.35
2022-09-28T08:17:31.711Z,87.89
2022-09-28T08:20:16.390Z,87.70
2022-09-28T08:22:45.205Z,87.73
2022-09-28T08:25:12.627Z,87.93
2022-09-28T08:27:40.079Z,87.73
2022-09-28T08:30:08.812Z,87.93
2022-09-28T08:32:36.580Z,86.73
2022-09-28T08:35:04.265Z,85.63
2022-09-28T08:37:31.670Z,84.89
2022-09-28T08:40:00.386Z,86.30
2022-09-28T08:42:34.873Z,86.64
2022-09-28T08:45:08.801Z,84.13
2022-09-28T08:48:09.386Z,82.64
2022-09-28T08:50:42.531Z,83.86
2022-09-28T08:53:28.747Z,83.01
2022-09-28T08:55:59.796Z,82.89
2022-09-28T08:58:33.575Z,81.77
2022-09-28T09:01:03.073Z,81.71
2022-09-28T09:03:34.010Z,83.58
2022-09-28T09:06:10.355Z,80.82
2022-09-28T09:08:49.945Z,79.72
2022-09-28T09:11:34.014Z,81.52
2022-09-28T09:14:13.826Z,80.12
2022-09-28T09:16:51.141Z,81.12
2022-09-28T09:19:35.384Z,78.83
2022-09-28T09:22:16.255Z,78.25
2022-09-28T09:24:50.687Z,79.39
2022-09-28T09:27:42.040Z,80.49
2022-09-28T09:30:12.699Z,79.51
2022-09-28T09:32:57.056Z,80.07
2022-09-28T09:35:40.459Z,77.47
2022-09-28T09:38:27.702Z,75.96
2022-09-28T09:41:11.530Z,76.83
2022-09-28T09:43:58.730Z,76.83
2022-09-28T09:46:36.134Z,76.64
2022-09-28T09:49:11.394Z,77.26
2022-09-28T09:51:44.544Z,76.92
2022-09-28T09:54:19.643Z,76.27
2022-09-28T09:56:53.632Z,74.81
2022-09-28T09:59:25.889Z,74.89
2022-09-28T10:01:54.467Z,73.51
2022-09-28T10:04:26.990Z,74.34
2022-09-28T10:06:59.860Z,76.23
2022-09-28T10:09:31.772Z,75.63
2022-09-28T10:11:59.262Z,73.38
2022-09-28T10:14:28.403Z,72.63
2022-09-28T10:16:58.744Z,73.82
2022-09-28T10:19:31.655Z,72.84
2022-09-28T10:22:02.516Z,71.95
2022-09-28T10:24:33.095Z,70.47
2022-09-28T10:27:06.437Z,70.57
2022-09-28T10:29:43.776Z,69.56
2022-09-28T10:32:23.734Z,73.15
2022-09-28T10:34:52.434Z,72.71
2022-09-28T10:37:20.446Z,69.61
2022-09-28T10:39:53.124Z,70.04
2022-09-28T10:42:23.531Z,67.78
2022-09-28T10:45:00.083Z,68.32
2022-09-28T10:47:32.475Z,69.05
2022-09-28T10:50:00.758Z,68.32
2022-09-28T10:52:36.949Z,70.34
2022-09-28T10:55:24.959Z,67.63
2022-09-28T10:57:52.911Z,70.77
2022-09-28T11:00:38.537Z,69.38
2022-09-28T11:03:06.188Z,69.92
2022-09-28T11:05:33.812Z,69.46
2022-09-28T11:08:07.994Z,69.62
2022-09-28T11:10:35.663Z,68.39
2022-09-28T11:13:03.049Z,69.73
2022-09-28T11:15:32.896Z,68.08
2022-09-28T11:18:21.082Z,69.64
2022-09-28T11:20:49.417Z,68.38
2022-09-28T11:23:20.624Z,68.93
2022-09-28T11:25:59.667Z,67.06
2022-09-28T11:28:32.615Z,67.20
2022-09-28T11:31:01.331Z,69.19
2022-09-28T11:33:36.038Z,67.65
2022-09-28T11:36:22.140Z,67.21
2022-09-28T11:39:01.015Z,67.26
2022-09-28T11:41:43.729Z,66.81
2022-09-28T11:44:44.540Z,65.21
2022-09-28T11:47:30.072Z,65.94
2022-09-28T11:50:06.385Z,67.06
2022-09-28T11:52:40.193Z,68.76
2022-09-28T11:55:15.256Z,69.62
2022-09-28T11:57:47.302Z,70.84
2022-09-28T12:00:17.412Z,71.03
2022-09-28T12:02:51.931Z,70.98
2022-09-28T12:05:26.755Z,70.18
2022-09-28T12:07:57.755Z,69.60
2022-09-28T12:10:42.166Z,70.13
2022-09-28T12:13:17.263Z,70.84
2022-09-28T12:16:20.062Z,69.09
2022-09-28T12:18:45.835Z,70.78
2022-09-28T12:21:28.652Z,72.51
2022-09-28T12:24:07.713Z,69.69
2022-09-28T12:26:42.623Z,70.04
2022-09-28T12:29:15.132Z,70.11
2022-09-28T12:31:54.715Z,70.07
2022-09-28T12:34:23.220Z,72.24
2022-09-28T12:37:05.503Z,71.73
2022-09-28T12:40:01.335Z,72.25
2022-09-28T12:42:53.518Z,70.40
2022-09-28T12:45:47.902Z,71.00
2022-09-28T12:48:37.788Z,72.42
2022-09-28T12:51:15.923Z,70.23
2022-09-28T12:54:14.788Z,67.95
2022-09-28T12:56:57.969Z,69.82
2022-09-28T12:59:31.766Z,70.95
2022-09-28T13:02:22.215Z,71.10
2022-09-28T13:05:13.366Z,71.33
2022-09-28T13:07:50.554Z,69.00
2022-09-28T13:10:32.570Z,69.92
2022-09-28T13:13:19.204Z,68.97
2022-09-28T13:15:52.975Z,70.35
2022-09-28T13:18:29.152Z,70.82
2022-09-28T13:21:15.972Z,71.34
2022-09-28T13:23:45.751Z,70.70
2022-09-28T13:26:24.031Z,69.82
2022-09-28T13:28:54.657Z,71.36
2022-09-28T13:31:30.873Z,71.16
2022-09-28T13:34:02.884Z,70.69
2022-09-28T13:36:45.843Z,71.54
2022-09-28T13:39:48.676Z,72.34
2022-09-28T13:42:29.132Z,70.19
2022-09-28T13:45:37.118Z,70.67
2022-09-28T13:48:15.268Z,71.03
2022-09-28T13:51:16.172Z,70.73
2022-09-28T13:54:16.868Z,70.11
2022-09-28T13:56:54.940Z,69.03
2022-09-28T13:59:27.614Z,69.82
2022-09-28T14:02:06.947Z,69.88
2022-09-28T14:04:54.292Z,70.77
2022-09-28T14:07:25.351Z,71.19
2022-09-28T14:10:17.232Z,74.10
2022-09-28T14:12:47.217Z,71.84
2022-09-28T14:15:40.716Z,73.48
2022-09-28T14:18:20.803Z,73.15
2022-09-28T14:21:04.127Z,74.29
2022-09-28T14:23:47.561Z,73.41
2022-09-28T14:26:46.922Z,72.36
2022-09-28T14:29:28.430Z,69.30
2022-09-28T14:31:59.073Z,63.20
2022-09-28T14:34:36.088Z,60.26
2022-09-28T14:37:23.416Z,58.24
2022-09-28T14:40:09.327Z,58.03
2022-09-28T14:42:37.048Z,57.65
2022-09-28T14:45:35.916Z,56.74
2022-09-28T14:48:16.378Z,57.07
2022-09-28T14:50:43.795Z,59.12
2022-09-28T14:53:13.900Z,61.53
2022-09-28T14:55:50.122Z,64.23
2022-09-28T14:58:22.499Z,64.28
2022-09-28T15:00:56.596Z,63.83
2022-09-28T15:03:29.802Z,61.83
2022-09-28T15:05:57.519Z,60.51
2022-09-28T15:08:36.960Z,62.74
2022-09-28T15:11:04.545Z,65.16
2022-09-28T15:13:31.997Z,66.32
2022-09-28T15:16:04.460Z,67.15
2022-09-28T15:19:04.051Z,66.40
2022-09-28T15:21:37.332Z,66.59
2022-09-28T15:24:24.769Z,66.55
2022-09-28T15:26:53.048Z,65.75
2022-09-28T15:29:22.657Z,62.62
2022-09-28T15:31:54.281Z,60.16
2022-09-28T15:34:48.666Z,57.59
2022-09-28T15:37:21.877Z,58.02
2022-09-28T15:39:50.922Z,60.04
2022-09-28T15:42:19.284Z,60.52
2022-09-28T15:45:06.007Z,61.50
2022-09-28T15:47:33.655Z,63.11
2022-09-28T15:50:05.001Z,64.99
2022-09-28T15:52:36.964Z,65.34
2022-09-28T15:55:07.035Z,66.28
2022-09-28T15:57:38.106Z,68.14
2022-09-28T16:00:22.703Z,68.91
2022-09-28T16:03:01.541Z,70.45
2022-09-28T16:05:39.126Z,71.60
2022-09-28T16:08:14.779Z,72.15
2022-09-28T16:10:55.105Z,72.32
2022-09-28T16:13:23.832Z,73.20
2022-09-28T16:15:57.770Z,71.80
2022-09-28T16:18:26.435Z,71.92
2022-09-28T16:20:57.016Z,72.75
2022-09-28T16:23:27.712Z,72.52
2022-09-28T16:26:00.074Z,70.93
2022-09-28T16:28:51.522Z,71.12
2022-09-28T16:31:28.155Z,71.81
2022-09-28T16:33:58.871Z,72.34
2022-09-28T16:36:30.102Z,72.13
2022-09-28T16:38:57.680Z,72.41
2022-09-28T16:41:28.801Z,73.72
2022-09-28T16:44:00.883Z,74.58
2022-09-28T16:46:33.601Z,74.15
2022-09-28T16:49:02.889Z,74.27
2022-09-28T16:51:32.395Z,75.84
2022-09-28T16:54:19.959Z,75.62
2022-09-28T16:56:47.449Z,76.55
2022-09-28T16:59:14.947Z,77.29
2022-09-28T17:01:43.810Z,78.42
2022-09-28T17:04:11.970Z,79.21
2022-09-28T17:06:40.734Z,79.57
2022-09-28T17:09:14.103Z,79.38
2022-09-28T17:11:41.485Z,79.67
2022-09-28T17:14:09.316Z,79.85
2022-09-28T17:19:28.687Z,80.97
2022-09-28T17:21:57.446Z,81.05
2022-09-28T17:24:24.895Z,81.63
2022-09-28T17:26:53.152Z,81.84
2022-09-28T17:29:21.014Z,81.89
2022-09-28T17:31:48.722Z,82.52
2022-09-28T17:34:16.952Z,83.00
2022-09-28T17:36:45.569Z,83.02
2022-09-28T17:39:16.805Z,83.15
2022-09-28T17:41:44.355Z,83.66
2022-09-28T17:44:15.830Z,83.77
2022-09-28T17:46:48.374Z,83.74
2022-09-28T17:49:16.900Z,83.65
2022-09-28T17:51:44.356Z,84.49
2022-09-28T17:54:12.837Z,84.35
2022-09-28T17:56:42.305Z,85.03
2022-09-28T17:59:14.320Z,85.24
2022-09-28T18:01:41.953Z,85.61
2022-09-28T18:04:22.997Z,85.73
2022-09-28T18:06:59.409Z,85.77
2022-09-28T18:09:26.884Z,86.32
2022-09-28T18:12:00.486Z,86.17
2022-09-28T18:14:28.298Z,86.08
2022-09-28T18:16:55.756Z,86.38
2022-09-28T18:19:23.215Z,85.79
2022-09-28T18:21:50.661Z,86.15
2022-09-28T18:24:18.214Z,85.38
2022-09-28T18:26:45.807Z,85.88
2022-09-28T18:29:14.580Z,86.21
2022-09-28T18:31:42.041Z,85.92
2022-09-28T18:34:10.765Z,86.68
2022-09-28T18:36:38.270Z,86.32
2022-09-28T18:39:05.724Z,86.25
2022-09-28T18:41:33.323Z,86.43
2022-09-28T18:44:01.376Z,86.77
2022-09-28T18:46:31.265Z,87.29
2022-09-28T18:48:58.803Z,88.04
2022-09-28T18:51:26.350Z,88.58
2022-09-28T18:53:53.775Z,89.13
2022-09-28T18:56:21.781Z,89.68
2022-09-28T18:58:49.721Z,89.11
2022-09-28T19:01:30.089Z,89.64
2022-09-28T19:04:01.329Z,89.96
2022-09-28T19:06:29.670Z,90.25
2022-09-28T19:08:57.274Z,90.24
2022-09-28T19:11:25.675Z,90.42
2022-09-28T19:13:54.361Z,90.55
2022-09-28T19:16:23.991Z,90.47
2022-09-28T19:18:52.288Z,90.20
2022-09-28T19:21:21.265Z,90.09
2022-09-28T19:23:50.036Z,89.86
2022-09-28T19:26:20.285Z,90.20
2022-09-28T19:28:47.746Z,90.26
2022-09-28T19:31:15.241Z,89.98
2022-09-28T19:33:43.670Z,90.09
2022-09-28T19:36:14.402Z,90.23
2022-09-28T19:38:43.292Z,90.42
2022-09-28T19:41:11.260Z,90.64
2022-09-28T19:43:43.558Z,90.58
2022-09-28T19:46:12.638Z,90.76
2022-09-28T19:48:41.145Z,91.17
2022-09-28T19:51:10.108Z,90.55
2022-09-28T19:53:37.589Z,89.99
2022-09-28T19:56:06.896Z,89.98
2022-09-28T19:58:36.296Z,89.80
2022-09-28T20:01:06.511Z,90.02
2022-09-28T20:03:34.001Z,89.88
2022-09-28T20:06:02.565Z,89.58
2022-09-28T20:08:30.893Z,89.40
2022-09-28T20:10:59.725Z,88.76
2022-09-28T20:13:32.724Z,88.88
2022-09-28T20:16:04.454Z,90.90
2022-09-28T20:18:34.400Z,91.05
2022-09-28T20:21:02.983Z,91.90
2022-09-28T20:23:31.245Z,92.29
2022-09-28T20:25:58.852Z,92.31
2022-09-28T20:28:26.277Z,92.51
2022-09-28T20:30:55.442Z,92.68
2022-09-28T20:33:28.582Z,92.50
2022-09-28T20:35:56.486Z,93.16
2022-09-28T20:38:24.002Z,93.18
2022-09-28T20:40:51.430Z,93.38
2022-09-28T20:43:18.949Z,93.76
2022-09-28T20:45:46.332Z,93.51
2022-09-28T20:48:15.223Z,93.85
2022-09-28T20:50:43.255Z,94.01
2022-09-28T20:53:10.665Z,94.24
2022-09-28T20:55:38.070Z,94.58
2022-09-28T20:58:05.496Z,95.01
2022-09-28T21:00:33.046Z,94.95
2022-09-28T21:03:00.452Z,95.00
2022-09-28T21:05:30.548Z,95.26
2022-09-28T21:07:59.123Z,94.96
2022-09-28T21:10:30.204Z,94.89
2022-09-28T21:12:57.640Z,94.59
2022-09-28T21:15:25.139Z,94.49
2022-09-28T21:17:52.582Z,94.70
2022-09-28T21:20:19.973Z,94.39
2022-09-28T21:22:48.696Z,94.38
2022-09-28T21:25:16.205Z,94.21
2022-09-28T21:27:44.683Z,93.85
2022-09-28T21:30:13.053Z,94.11
2022-09-28T21:32:40.468Z,94.47
2022-09-28T21:35:08.627Z,94.13
2022-09-28T21:37:36.037Z,94.24
2022-09-28T21:40:09.402Z,94.48
2022-09-28T21:42:36.791Z,94.58
2022-09-28T21:45:04.721Z,94.57
2022-09-28T21:47:32.132Z,94.30
2022-09-28T21:49:59.565Z,94.77
2022-09-28T21:52:27.294Z,94.86
2022-09-28T21:54:54.995Z,94.62
2022-09-28T21:57:23.855Z,94.91
2022-09-28T21:59:51.251Z,94.94
2022-09-28T22:02:19.010Z,94.68
2022-09-28T22:04:46.438Z,94.75
2022-09-28T22:07:13.836Z,95.12
2022-09-28T22:09:41.256Z,95.63
2022-09-28T22:12:08.708Z,95.60
2022-09-28T22:14:37.453Z,95.37
2022-09-28T22:17:04.877Z,95.42
2022-09-28T22:19:32.300Z,95.47
2022-09-28T22:21:59.704Z,95.38
2022-09-28T22:24:27.184Z,95.70
2022-09-28T22:26:54.695Z,95.49
2022-09-28T22:29:22.456Z,95.67
2022-09-28T22:31:51.273Z,95.87
2022-09-28T22:34:18.929Z,95.84
2022-09-28T22:36:46.433Z,95.85
2022-09-28T22:39:14.598Z,95.52
2022-09-28T22:41:42.008Z,95.80
2022-09-28T22:44:09.409Z,95.83
2022-09-28T22:46:36.885Z,96.00
2022-09-28T22:49:05.941Z,96.11
2022-09-28T22:51:33.352Z,95.82
2022-09-28T22:54:01.080Z,95.83
2022-09-28T22:56:28.780Z,95.51
2022-09-28T22:58:56.368Z,95.44
2022-09-28T23:01:25.505Z,95.25
2022-09-28T23:03:53.983Z,95.20
2022-09-28T23:06:25.828Z,95.51
2022-09-28T23:08:53.912Z,95.29
2022-09-28T23:11:21.444Z,95.13
2022-09-28T23:13:52.618Z,95.78
2022-09-28T23:16:22.768Z,95.79
2022-09-28T23:18:50.240Z,95.94
2022-09-28T23:21:19.308Z,96.10
2022-09-28T23:23:53.094Z,96.52
2022-09-28T23:26:23.442Z,96.41
2022-09-28T23:28:51.680Z,96.42
2022-09-28T23:31:21.052Z,96.51
2022-09-28T23:33:48.683Z,96.87
2022-09-28T23:36:16.884Z,96.88
2022-09-28T23:38:44.585Z,96.79
2022-09-28T23:41:13.290Z,96.47
2022-09-28T23:43:40.735Z,96.94
2022-09-28T23:46:08.226Z,96.94
2022-09-28T23:48:35.711Z,96.83
2022-09-28T23:51:03.916Z,96.97
2022-09-28T23:53:32.095Z,96.72
2022-09-28T23:55:59.646Z,96.79
2022-09-28T23:58:28.488Z,96.66
